sensor_id;sensor_type;location;lat;lon;timestamp;pressure;altitude;pressure_sealevel;temperature;humidity
13581;BME280;6861;46.170;7.222;2023-03-01T00:01:21;96251.84;;;4.27;48.45
13581;BME280;6861;46.170;7.222;2023-03-01T00:03:49;96252.28;;;4.24;49.14
13581;BME280;6861;46.170;7.222;2023-03-01T00:06:18;96255.09;;;4.22;49.27
13581;BME280;6861;46.170;7.222;2023-03-01T00:08:46;96258.69;;;4.21;48.62
13581;BME280;6861;46.170;7.222;2023-03-01T00:11:16;96256.09;;;4.21;48.63
13581;BME280;6861;46.170;7.222;2023-03-01T00:13:46;96253.72;;;4.20;49.05
13581;BME280;6861;46.170;7.222;2023-03-01T00:16:16;96249.56;;;4.19;49.27
13581;BME280;6861;46.170;7.222;2023-03-01T00:18:46;96249.56;;;4.19;49.16
13581;BME280;6861;46.170;7.222;2023-03-01T00:21:14;96246.03;;;4.13;49.53
13581;BME280;6861;46.170;7.222;2023-03-01T00:23:42;96244.53;;;4.06;48.72
13581;BME280;6861;46.170;7.222;2023-03-01T00:26:12;96241.78;;;4.01;49.38
13581;BME280;6861;46.170;7.222;2023-03-01T00:28:41;96238.63;;;3.99;49.19
13581;BME280;6861;46.170;7.222;2023-03-01T00:31:12;96237.03;;;3.98;49.75
13581;BME280;6861;46.170;7.222;2023-03-01T00:33:41;96223.97;;;3.92;49.65
13581;BME280;6861;46.170;7.222;2023-03-01T00:36:11;96220.66;;;3.85;49.89
13581;BME280;6861;46.170;7.222;2023-03-01T00:38:43;96229.56;;;3.89;49.56
13581;BME280;6861;46.170;7.222;2023-03-01T00:41:13;96233.59;;;3.85;49.87
13581;BME280;6861;46.170;7.222;2023-03-01T00:43:42;96235.59;;;3.83;49.29
13581;BME280;6861;46.170;7.222;2023-03-01T00:46:12;96229.28;;;3.79;49.38
13581;BME280;6861;46.170;7.222;2023-03-01T00:48:41;96225.31;;;3.77;49.75
13581;BME280;6861;46.170;7.222;2023-03-01T00:51:13;96229.72;;;3.76;49.99
13581;BME280;6861;46.170;7.222;2023-03-01T00:53:42;96219.19;;;3.71;49.79
13581;BME280;6861;46.170;7.222;2023-03-01T00:56:12;96222.66;;;3.65;50.34
13581;BME280;6861;46.170;7.222;2023-03-01T00:58:40;96225.94;;;3.54;50.13
13581;BME280;6861;46.170;7.222;2023-03-01T01:01:10;96226.66;;;3.43;49.92
13581;BME280;6861;46.170;7.222;2023-03-01T01:03:45;96217.44;;;3.28;51.01
13581;BME280;6861;46.170;7.222;2023-03-01T01:06:16;96211.94;;;3.18;51.44
13581;BME280;6861;46.170;7.222;2023-03-01T01:08:45;96211.63;;;3.08;51.25
13581;BME280;6861;46.170;7.222;2023-03-01T01:11:13;96207.31;;;3.02;51.35
13581;BME280;6861;46.170;7.222;2023-03-01T01:13:41;96204.56;;;2.97;51.77
13581;BME280;6861;46.170;7.222;2023-03-01T01:16:11;96206.56;;;2.95;51.57
13581;BME280;6861;46.170;7.222;2023-03-01T01:18:39;96200.22;;;2.91;51.97
13581;BME280;6861;46.170;7.222;2023-03-01T01:21:10;96195.47;;;2.88;52.06
13581;BME280;6861;46.170;7.222;2023-03-01T01:23:40;96192.31;;;2.86;51.24
13581;BME280;6861;46.170;7.222;2023-03-01T01:26:10;96191.94;;;2.82;52.11
13581;BME280;6861;46.170;7.222;2023-03-01T01:28:39;96182.81;;;2.80;51.95
13581;BME280;6861;46.170;7.222;2023-03-01T01:31:07;96180.25;;;2.80;52.10
13581;BME280;6861;46.170;7.222;2023-03-01T01:33:35;96182.41;;;2.83;51.34
13581;BME280;6861;46.170;7.222;2023-03-01T01:36:04;96180.41;;;2.85;52.03
13581;BME280;6861;46.170;7.222;2023-03-01T01:38:32;96177.44;;;2.81;52.57
13581;BME280;6861;46.170;7.222;2023-03-01T01:41:03;96175.31;;;2.72;52.15
13581;BME280;6861;46.170;7.222;2023-03-01T01:43:34;96175.75;;;2.69;52.32
13581;BME280;6861;46.170;7.222;2023-03-01T01:46:04;96173.59;;;2.66;52.46
13581;BME280;6861;46.170;7.222;2023-03-01T01:48:39;96177.59;;;2.61;51.97
13581;BME280;6861;46.170;7.222;2023-03-01T01:51:12;96173.06;;;2.57;52.59
13581;BME280;6861;46.170;7.222;2023-03-01T01:53:42;96174.66;;;2.58;52.45
13581;BME280;6861;46.170;7.222;2023-03-01T01:56:12;96171.28;;;2.57;52.98
13581;BME280;6861;46.170;7.222;2023-03-01T01:58:42;96175.88;;;2.55;53.02
13581;BME280;6861;46.170;7.222;2023-03-01T02:01:11;96168.69;;;2.57;52.45
13581;BME280;6861;46.170;7.222;2023-03-01T02:03:41;96176.59;;;2.62;52.07
13581;BME280;6861;46.170;7.222;2023-03-01T02:06:15;96170.78;;;2.67;51.83
13581;BME280;6861;46.170;7.222;2023-03-01T02:08:47;96174.53;;;2.71;52.32
13581;BME280;6861;46.170;7.222;2023-03-01T02:11:18;96172.13;;;2.76;51.89
13581;BME280;6861;46.170;7.222;2023-03-01T02:13:47;96164.56;;;2.75;52.35
13581;BME280;6861;46.170;7.222;2023-03-01T02:16:16;96164.56;;;2.75;52.44
13581;BME280;6861;46.170;7.222;2023-03-01T02:18:45;96170.13;;;2.78;52.26
13581;BME280;6861;46.170;7.222;2023-03-01T02:21:35;96170.47;;;2.82;51.83
13581;BME280;6861;46.170;7.222;2023-03-01T02:24:13;96161.31;;;2.86;52.43
13581;BME280;6861;46.170;7.222;2023-03-01T02:26:50;96159.53;;;2.86;52.29
13581;BME280;6861;46.170;7.222;2023-03-01T02:29:21;96160.09;;;2.88;51.93
13581;BME280;6861;46.170;7.222;2023-03-01T02:31:51;96160.88;;;2.89;52.01
13581;BME280;6861;46.170;7.222;2023-03-01T02:34:22;96152.41;;;2.82;52.27
13581;BME280;6861;46.170;7.222;2023-03-01T02:36:54;96152.50;;;2.69;51.79
13581;BME280;6861;46.170;7.222;2023-03-01T02:39:26;96147.88;;;2.52;51.93
13581;BME280;6861;46.170;7.222;2023-03-01T02:41:56;96159.63;;;2.48;52.08
13581;BME280;6861;46.170;7.222;2023-03-01T02:44:27;96149.91;;;2.44;51.93
13581;BME280;6861;46.170;7.222;2023-03-01T02:46:56;96148.94;;;2.38;52.30
13581;BME280;6861;46.170;7.222;2023-03-01T02:49:26;96140.03;;;2.34;52.73
13581;BME280;6861;46.170;7.222;2023-03-01T02:52:32;96141.03;;;2.33;53.31
13581;BME280;6861;46.170;7.222;2023-03-01T02:55:03;96133.88;;;2.35;52.12
13581;BME280;6861;46.170;7.222;2023-03-01T02:57:35;96136.63;;;2.40;53.13
13581;BME280;6861;46.170;7.222;2023-03-01T03:00:08;96139.38;;;2.45;52.18
13581;BME280;6861;46.170;7.222;2023-03-01T03:02:37;96129.78;;;2.52;52.41
13581;BME280;6861;46.170;7.222;2023-03-01T03:05:08;96124.41;;;2.54;51.66
13581;BME280;6861;46.170;7.222;2023-03-01T03:07:38;96131.75;;;2.57;52.65
13581;BME280;6861;46.170;7.222;2023-03-01T03:10:09;96123.22;;;2.56;52.04
13581;BME280;6861;46.170;7.222;2023-03-01T03:12:39;96123.41;;;2.55;52.50
13581;BME280;6861;46.170;7.222;2023-03-01T03:15:10;96124.03;;;2.50;52.18
13581;BME280;6861;46.170;7.222;2023-03-01T03:17:40;96115.91;;;2.47;52.92
13581;BME280;6861;46.170;7.222;2023-03-01T03:20:13;96120.28;;;2.46;52.44
13581;BME280;6861;46.170;7.222;2023-03-01T03:22:46;96117.50;;;2.48;52.46
13581;BME280;6861;46.170;7.222;2023-03-01T03:25:14;96112.34;;;2.48;52.58
13581;BME280;6861;46.170;7.222;2023-03-01T03:27:44;96121.47;;;2.50;52.35
13581;BME280;6861;46.170;7.222;2023-03-01T03:30:17;96115.09;;;2.53;52.34
13581;BME280;6861;46.170;7.222;2023-03-01T03:32:47;96112.28;;;2.54;52.30
13581;BME280;6861;46.170;7.222;2023-03-01T03:35:21;96106.91;;;2.56;52.39
13581;BME280;6861;46.170;7.222;2023-03-01T03:37:49;96113.88;;;2.55;52.54
13581;BME280;6861;46.170;7.222;2023-03-01T03:40:31;96114.28;;;2.52;52.33
13581;BME280;6861;46.170;7.222;2023-03-01T03:43:00;96114.72;;;2.49;52.42
13581;BME280;6861;46.170;7.222;2023-03-01T03:45:29;96116.72;;;2.47;52.69
13581;BME280;6861;46.170;7.222;2023-03-01T03:48:00;96118.50;;;2.47;52.57
13581;BME280;6861;46.170;7.222;2023-03-01T03:50:29;96120.28;;;2.46;52.70
13581;BME280;6861;46.170;7.222;2023-03-01T03:52:57;96121.09;;;2.47;52.50
13581;BME280;6861;46.170;7.222;2023-03-01T03:55:25;96111.97;;;2.44;53.23
13581;BME280;6861;46.170;7.222;2023-03-01T03:57:58;96112.59;;;2.40;53.38
13581;BME280;6861;46.170;7.222;2023-03-01T04:00:30;96108.44;;;2.39;53.33
13581;BME280;6861;46.170;7.222;2023-03-01T04:02:58;96107.25;;;2.35;52.95
13581;BME280;6861;46.170;7.222;2023-03-01T04:05:28;96105.31;;;2.30;53.22
13581;BME280;6861;46.170;7.222;2023-03-01T04:07:57;96097.41;;;2.25;53.10
13581;BME280;6861;46.170;7.222;2023-03-01T04:10:36;96097.81;;;2.22;53.57
13581;BME280;6861;46.170;7.222;2023-03-01T04:13:06;96084.16;;;2.15;52.59
13581;BME280;6861;46.170;7.222;2023-03-01T04:15:36;96092.50;;;2.17;52.56
13581;BME280;6861;46.170;7.222;2023-03-01T04:18:05;96089.16;;;2.10;52.96
13581;BME280;6861;46.170;7.222;2023-03-01T04:20:34;96089.63;;;1.93;53.54
13581;BME280;6861;46.170;7.222;2023-03-01T04:23:05;96086.75;;;1.77;53.91
13581;BME280;6861;46.170;7.222;2023-03-01T04:25:41;96086.69;;;1.52;54.45
13581;BME280;6861;46.170;7.222;2023-03-01T04:28:10;96083.97;;;1.34;54.95
13581;BME280;6861;46.170;7.222;2023-03-01T04:30:39;96084.00;;;1.20;55.44
13581;BME280;6861;46.170;7.222;2023-03-01T04:33:09;96093.53;;;1.13;55.41
13581;BME280;6861;46.170;7.222;2023-03-01T04:35:37;96082.88;;;1.03;55.39
13581;BME280;6861;46.170;7.222;2023-03-01T04:38:07;96095.94;;;0.95;55.55
13581;BME280;6861;46.170;7.222;2023-03-01T04:40:35;96090.44;;;0.85;55.93
13581;BME280;6861;46.170;7.222;2023-03-01T04:43:03;96091.25;;;0.79;56.17
13581;BME280;6861;46.170;7.222;2023-03-01T04:45:32;96085.31;;;0.78;55.99
13581;BME280;6861;46.170;7.222;2023-03-01T04:48:04;96084.91;;;0.75;56.24
13581;BME280;6861;46.170;7.222;2023-03-01T04:50:32;96085.31;;;0.72;56.56
13581;BME280;6861;46.170;7.222;2023-03-01T04:53:00;96093.03;;;0.72;56.46
13581;BME280;6861;46.170;7.222;2023-03-01T04:55:29;96086.91;;;0.73;56.03
13581;BME280;6861;46.170;7.222;2023-03-01T04:57:58;96086.91;;;0.73;56.07
13581;BME280;6861;46.170;7.222;2023-03-01T05:00:26;96088.06;;;0.77;55.88
13581;BME280;6861;46.170;7.222;2023-03-01T05:02:55;96079.97;;;0.80;56.34
13581;BME280;6861;46.170;7.222;2023-03-01T05:05:27;96086.69;;;0.81;55.92
13581;BME280;6861;46.170;7.222;2023-03-01T05:08:00;96084.88;;;0.88;55.87
13581;BME280;6861;46.170;7.222;2023-03-01T05:10:29;96081.69;;;0.92;56.31
13581;BME280;6861;46.170;7.222;2023-03-01T05:12:59;96078.91;;;0.94;56.19
13581;BME280;6861;46.170;7.222;2023-03-01T05:15:29;96076.53;;;0.99;55.98
13581;BME280;6861;46.170;7.222;2023-03-01T05:17:59;96083.84;;;1.02;55.91
13581;BME280;6861;46.170;7.222;2023-03-01T05:20:29;96076.50;;;1.06;56.02
13581;BME280;6861;46.170;7.222;2023-03-01T05:22:59;96083.63;;;1.10;55.47
13581;BME280;6861;46.170;7.222;2023-03-01T05:25:33;96081.03;;;1.17;56.14
13581;BME280;6861;46.170;7.222;2023-03-01T05:28:02;96076.88;;;1.22;55.32
13581;BME280;6861;46.170;7.222;2023-03-01T05:30:31;96079.84;;;1.26;55.84
13581;BME280;6861;46.170;7.222;2023-03-01T05:33:00;96083.00;;;1.21;55.51
13581;BME280;6861;46.170;7.222;2023-03-01T05:35:32;96074.91;;;1.11;56.15
13581;BME280;6861;46.170;7.222;2023-03-01T05:38:00;96078.50;;;1.04;55.90
13581;BME280;6861;46.170;7.222;2023-03-01T05:40:28;96084.47;;;0.91;56.28
13581;BME280;6861;46.170;7.222;2023-03-01T05:42:56;96074.63;;;0.75;56.23
13581;BME280;6861;46.170;7.222;2023-03-01T05:45:26;96074.63;;;0.68;56.77
13581;BME280;6861;46.170;7.222;2023-03-01T05:47:54;96078.97;;;0.61;56.67
13581;BME280;6861;46.170;7.222;2023-03-01T05:50:23;96078.19;;;0.60;57.09
13581;BME280;6861;46.170;7.222;2023-03-01T05:52:58;96071.84;;;0.56;57.00
13581;BME280;6861;46.170;7.222;2023-03-01T05:55:27;96073.44;;;0.57;56.79
13581;BME280;6861;46.170;7.222;2023-03-01T05:57:58;96080.16;;;0.58;57.38
13581;BME280;6861;46.170;7.222;2023-03-01T06:00:26;96073.44;;;0.57;56.60
13581;BME280;6861;46.170;7.222;2023-03-01T06:02:56;96077.19;;;0.61;57.15
13581;BME280;6861;46.170;7.222;2023-03-01T06:05:24;96078.78;;;0.62;57.24
13581;BME280;6861;46.170;7.222;2023-03-01T06:07:55;96053.84;;;0.56;57.12
13581;BME280;6861;46.170;7.222;2023-03-01T06:10:26;96061.94;;;0.67;56.96
13581;BME280;6861;46.170;7.222;2023-03-01T06:12:54;96065.69;;;0.71;57.04
13581;BME280;6861;46.170;7.222;2023-03-01T06:15:23;96064.72;;;0.72;57.17
13581;BME280;6861;46.170;7.222;2023-03-01T06:17:54;96076.78;;;0.71;57.18
13581;BME280;6861;46.170;7.222;2023-03-01T06:20:27;96075.81;;;0.72;56.88
13581;BME280;6861;46.170;7.222;2023-03-01T06:22:57;96071.03;;;0.76;56.71
13581;BME280;6861;46.170;7.222;2023-03-01T06:25:27;96070.25;;;0.75;56.69
13581;BME280;6861;46.170;7.222;2023-03-01T06:27:55;96073.41;;;0.77;57.26
13581;BME280;6861;46.170;7.222;2023-03-01T06:30:25;96074.59;;;0.81;57.07
13581;BME280;6861;46.170;7.222;2023-03-01T06:32:53;96072.97;;;0.87;56.79
13581;BME280;6861;46.170;7.222;2023-03-01T06:35:28;96069.41;;;0.94;57.09
13581;BME280;6861;46.170;7.222;2023-03-01T06:38:00;96075.53;;;1.00;57.12
13581;BME280;6861;46.170;7.222;2023-03-01T06:40:28;96063.44;;;1.07;56.98
13581;BME280;6861;46.170;7.222;2023-03-01T06:42:58;96065.59;;;1.17;56.45
13581;BME280;6861;46.170;7.222;2023-03-01T06:45:26;96062.22;;;1.16;56.31
13581;BME280;6861;46.170;7.222;2023-03-01T06:48:01;96067.38;;;1.16;57.12
13581;BME280;6861;46.170;7.222;2023-03-01T06:50:31;96061.44;;;1.09;56.39
13581;BME280;6861;46.170;7.222;2023-03-01T06:53:01;96071.75;;;1.09;56.77
13581;BME280;6861;46.170;7.222;2023-03-01T06:55:29;96073.31;;;1.17;56.63
13581;BME280;6861;46.170;7.222;2023-03-01T06:57:59;96077.66;;;1.23;56.82
13581;BME280;6861;46.170;7.222;2023-03-01T07:00:28;96083.19;;;1.26;56.38
13581;BME280;6861;46.170;7.222;2023-03-01T07:02:59;96081.59;;;1.32;56.99
13581;BME280;6861;46.170;7.222;2023-03-01T07:05:29;96075.25;;;1.35;56.53
13581;BME280;6861;46.170;7.222;2023-03-01T07:07:57;96069.44;;;1.46;56.47
13581;BME280;6861;46.170;7.222;2023-03-01T07:10:27;96057.91;;;1.55;56.44
13581;BME280;6861;46.170;7.222;2023-03-01T07:12:55;96053.13;;;1.58;55.58
13581;BME280;6861;46.170;7.222;2023-03-01T07:15:24;96057.69;;;1.63;56.28
13581;BME280;6861;46.170;7.222;2023-03-01T07:17:52;96051.69;;;1.69;56.33
13581;BME280;6861;46.170;7.222;2023-03-01T07:20:20;96045.53;;;1.70;56.46
13581;BME280;6861;46.170;7.222;2023-03-01T07:22:52;96053.97;;;1.84;55.35
13581;BME280;6861;46.170;7.222;2023-03-01T07:25:20;96061.09;;;1.88;55.57
13581;BME280;6861;46.170;7.222;2023-03-01T07:27:50;96050.78;;;1.88;55.43
13581;BME280;6861;46.170;7.222;2023-03-01T07:30:19;96053.94;;;1.90;55.63
13581;BME280;6861;46.170;7.222;2023-03-01T07:32:48;96060.25;;;1.94;55.09
13581;BME280;6861;46.170;7.222;2023-03-01T07:35:16;96058.69;;;1.93;55.21
13581;BME280;6861;46.170;7.222;2023-03-01T07:37:44;96063.97;;;2.05;55.72
13581;BME280;6861;46.170;7.222;2023-03-01T07:40:12;96062.03;;;2.25;54.95
13581;BME280;6861;46.170;7.222;2023-03-01T07:42:40;96064.47;;;2.45;54.64
13581;BME280;6861;46.170;7.222;2023-03-01T07:45:11;96059.34;;;2.63;54.36
13581;BME280;6861;46.170;7.222;2023-03-01T07:47:40;96050.03;;;2.81;54.69
13581;BME280;6861;46.170;7.222;2023-03-01T07:50:09;96050.34;;;2.91;54.02
13581;BME280;6861;46.170;7.222;2023-03-01T07:52:37;96045.19;;;2.91;53.46
13581;BME280;6861;46.170;7.222;2023-03-01T07:55:06;96049.34;;;2.92;53.46
13581;BME280;6861;46.170;7.222;2023-03-01T07:57:34;96042.75;;;2.96;54.47
13581;BME280;6861;46.170;7.222;2023-03-01T08:00:03;96046.75;;;2.92;54.41
13581;BME280;6861;46.170;7.222;2023-03-01T08:02:33;96045.53;;;2.94;54.17
13581;BME280;6861;46.170;7.222;2023-03-01T08:05:01;96042.59;;;3.46;53.65
13581;BME280;6861;46.170;7.222;2023-03-01T08:07:29;96033.41;;;4.33;52.31
13581;BME280;6861;46.170;7.222;2023-03-01T08:09:57;96041.22;;;5.32;51.23
13581;BME280;6861;46.170;7.222;2023-03-01T08:12:25;96035.97;;;6.12;49.46
13581;BME280;6861;46.170;7.222;2023-03-01T08:14:54;96034.09;;;6.57;49.70
13581;BME280;6861;46.170;7.222;2023-03-01T08:17:23;96026.38;;;7.23;47.89
13581;BME280;6861;46.170;7.222;2023-03-01T08:19:53;96021.50;;;8.02;46.82
13581;BME280;6861;46.170;7.222;2023-03-01T08:22:21;96015.16;;;8.94;46.04
13581;BME280;6861;46.170;7.222;2023-03-01T08:24:49;96016.59;;;10.00;44.08
13581;BME280;6861;46.170;7.222;2023-03-01T08:27:17;96006.06;;;11.11;42.78
13581;BME280;6861;46.170;7.222;2023-03-01T08:29:45;96003.28;;;12.40;41.04
13581;BME280;6861;46.170;7.222;2023-03-01T08:32:13;96002.53;;;13.64;39.10
13581;BME280;6861;46.170;7.222;2023-03-01T08:34:41;95998.47;;;15.07;36.85
13581;BME280;6861;46.170;7.222;2023-03-01T08:37:11;96003.09;;;16.28;34.91
13581;BME280;6861;46.170;7.222;2023-03-01T08:39:39;95990.34;;;17.06;33.34
13581;BME280;6861;46.170;7.222;2023-03-01T08:42:07;96002.19;;;17.09;32.66
13581;BME280;6861;46.170;7.222;2023-03-01T08:44:35;96001.47;;;16.19;32.73
13581;BME280;6861;46.170;7.222;2023-03-01T08:47:03;95997.41;;;15.22;33.45
13581;BME280;6861;46.170;7.222;2023-03-01T08:49:31;95999.91;;;14.72;33.80
13581;BME280;6861;46.170;7.222;2023-03-01T08:52:01;96000.13;;;15.44;33.14
13581;BME280;6861;46.170;7.222;2023-03-01T08:54:31;95994.69;;;16.26;32.22
13581;BME280;6861;46.170;7.222;2023-03-01T08:57:01;95997.94;;;17.56;30.64
13581;BME280;6861;46.170;7.222;2023-03-01T08:59:29;95995.06;;;19.16;29.50
13581;BME280;6861;46.170;7.222;2023-03-01T09:02:02;95986.47;;;20.74;27.68
13581;BME280;6861;46.170;7.222;2023-03-01T09:04:30;95980.06;;;21.97;25.60
13581;BME280;6861;46.170;7.222;2023-03-01T09:06:59;95972.09;;;22.80;24.81
13581;BME280;6861;46.170;7.222;2023-03-01T09:09:27;95965.69;;;23.64;24.45
13581;BME280;6861;46.170;7.222;2023-03-01T09:11:57;95963.06;;;24.60;23.20
13581;BME280;6861;46.170;7.222;2023-03-01T09:14:25;95951.41;;;25.40;22.41
13581;BME280;6861;46.170;7.222;2023-03-01T09:16:53;95942.38;;;26.08;21.67
13581;BME280;6861;46.170;7.222;2023-03-01T09:19:21;95942.56;;;26.97;20.89
13581;BME280;6861;46.170;7.222;2023-03-01T09:21:52;95938.56;;;27.86;20.41
13581;BME280;6861;46.170;7.222;2023-03-01T09:24:23;95934.59;;;28.42;19.51
13581;BME280;6861;46.170;7.222;2023-03-01T09:26:53;95931.63;;;29.04;19.04
13581;BME280;6861;46.170;7.222;2023-03-01T09:29:24;95928.91;;;29.54;18.24
13581;BME280;6861;46.170;7.222;2023-03-01T09:31:52;95928.00;;;29.96;17.78
13581;BME280;6861;46.170;7.222;2023-03-01T09:34:22;95918.00;;;30.04;16.97
13581;BME280;6861;46.170;7.222;2023-03-01T09:36:50;95909.50;;;29.98;17.05
13581;BME280;6861;46.170;7.222;2023-03-01T09:39:19;95907.94;;;30.15;17.06
13581;BME280;6861;46.170;7.222;2023-03-01T09:41:50;95900.03;;;30.45;16.64
13581;BME280;6861;46.170;7.222;2023-03-01T09:44:32;95895.41;;;31.01;15.53
13581;BME280;6861;46.170;7.222;2023-03-01T09:47:04;95894.75;;;31.35;15.63
13581;BME280;6861;46.170;7.222;2023-03-01T09:49:34;95893.72;;;31.59;15.17
13581;BME280;6861;46.170;7.222;2023-03-01T09:52:09;95890.16;;;31.69;14.37
13581;BME280;6861;46.170;7.222;2023-03-01T09:54:41;95893.53;;;31.80;14.48
13581;BME280;6861;46.170;7.222;2023-03-01T09:57:18;95887.38;;;31.76;14.36
13581;BME280;6861;46.170;7.222;2023-03-01T10:00:01;95889.94;;;31.53;14.22
13581;BME280;6861;46.170;7.222;2023-03-01T10:02:38;95875.19;;;31.57;14.37
13581;BME280;6861;46.170;7.222;2023-03-01T10:05:19;95880.09;;;32.04;14.35
13581;BME280;6861;46.170;7.222;2023-03-01T10:08:02;95873.50;;;32.89;13.69
13581;BME280;6861;46.170;7.222;2023-03-01T10:10:35;95863.09;;;33.31;13.66
13581;BME280;6861;46.170;7.222;2023-03-01T10:13:13;95855.19;;;33.16;13.58
13581;BME280;6861;46.170;7.222;2023-03-01T10:15:48;95841.78;;;32.86;13.23
13581;BME280;6861;46.170;7.222;2023-03-01T10:18:24;95858.06;;;32.86;13.34
13581;BME280;6861;46.170;7.222;2023-03-01T10:20:55;95852.53;;;32.39;13.45
13581;BME280;6861;46.170;7.222;2023-03-01T10:23:26;95836.56;;;32.18;13.53
13581;BME280;6861;46.170;7.222;2023-03-01T10:28:52;95831.22;;;32.68;13.37
13581;BME280;6861;46.170;7.222;2023-03-01T10:31:25;95823.59;;;32.86;12.75
13581;BME280;6861;46.170;7.222;2023-03-01T10:33:56;95831.78;;;32.83;12.94
13581;BME280;6861;46.170;7.222;2023-03-01T10:36:25;95823.72;;;32.52;12.54
13581;BME280;6861;46.170;7.222;2023-03-01T10:38:55;95814.22;;;32.10;13.38
13581;BME280;6861;46.170;7.222;2023-03-01T10:41:27;95815.81;;;32.62;13.16
13581;BME280;6861;46.170;7.222;2023-03-01T10:43:57;95819.81;;;32.80;12.64
13581;BME280;6861;46.170;7.222;2023-03-01T10:46:30;95802.13;;;32.18;13.05
13581;BME280;6861;46.170;7.222;2023-03-01T10:49:14;95807.56;;;32.45;13.15
13581;BME280;6861;46.170;7.222;2023-03-01T10:51:44;95804.25;;;32.34;13.15
13581;BME280;6861;46.170;7.222;2023-03-01T10:54:18;95804.72;;;32.29;12.58
13581;BME280;6861;46.170;7.222;2023-03-01T10:56:48;95799.75;;;31.97;12.97
13581;BME280;6861;46.170;7.222;2023-03-01T10:59:22;95792.75;;;32.00;13.34
13581;BME280;6861;46.170;7.222;2023-03-01T11:02:16;95780.50;;;33.12;12.62
13581;BME280;6861;46.170;7.222;2023-03-01T11:04:59;95773.81;;;32.73;12.30
13581;BME280;6861;46.170;7.222;2023-03-01T11:07:28;95772.00;;;32.43;12.70
13581;BME280;6861;46.170;7.222;2023-03-01T11:09:56;95768.47;;;32.70;12.77
13581;BME280;6861;46.170;7.222;2023-03-01T11:12:25;95760.66;;;33.58;12.43
13581;BME280;6861;46.170;7.222;2023-03-01T11:14:57;95756.44;;;34.09;12.07
13581;BME280;6861;46.170;7.222;2023-03-01T11:17:27;95755.84;;;34.18;11.84
13581;BME280;6861;46.170;7.222;2023-03-01T11:20:10;95750.16;;;34.12;11.74
13581;BME280;6861;46.170;7.222;2023-03-01T11:22:47;95743.75;;;35.96;11.08
13581;BME280;6861;46.170;7.222;2023-03-01T11:25:17;95736.16;;;37.42;10.56
13581;BME280;6861;46.170;7.222;2023-03-01T11:27:47;95728.09;;;38.41;10.24
13581;BME280;6861;46.170;7.222;2023-03-01T11:30:19;95721.97;;;37.78;9.97
13581;BME280;6861;46.170;7.222;2023-03-01T11:32:56;95728.47;;;36.24;11.23
13581;BME280;6861;46.170;7.222;2023-03-01T11:35:26;95719.03;;;35.91;11.11
13581;BME280;6861;46.170;7.222;2023-03-01T11:38:03;95721.19;;;35.29;11.03
13581;BME280;6861;46.170;7.222;2023-03-01T11:40:35;95722.34;;;34.41;11.76
13581;BME280;6861;46.170;7.222;2023-03-01T11:43:15;95709.31;;;31.64;13.38
13581;BME280;6861;46.170;7.222;2023-03-01T11:45:56;95704.22;;;28.09;14.85
13581;BME280;6861;46.170;7.222;2023-03-01T11:48:44;95697.19;;;23.73;17.46
13581;BME280;6861;46.170;7.222;2023-03-01T11:51:21;95701.88;;;20.86;20.42
13581;BME280;6861;46.170;7.222;2023-03-01T11:54:01;95698.13;;;18.78;21.84
13581;BME280;6861;46.170;7.222;2023-03-01T11:56:35;95695.50;;;17.00;24.02
13581;BME280;6861;46.170;7.222;2023-03-01T12:02:26;95685.28;;;15.45;25.73
13581;BME280;6861;46.170;7.222;2023-03-01T12:08:11;95676.38;;;14.52;27.27
13581;BME280;6861;46.170;7.222;2023-03-01T12:10:43;95659.03;;;14.23;26.97
13581;BME280;6861;46.170;7.222;2023-03-01T12:13:34;95657.44;;;13.72;28.78
13581;BME280;6861;46.170;7.222;2023-03-01T12:16:30;95644.66;;;13.52;28.99
13581;BME280;6861;46.170;7.222;2023-03-01T12:19:21;95632.69;;;13.46;28.92
13581;BME280;6861;46.170;7.222;2023-03-01T12:22:09;95630.72;;;13.38;29.44
13581;BME280;6861;46.170;7.222;2023-03-01T12:31:05;95625.38;;;13.10;29.91
13581;BME280;6861;46.170;7.222;2023-03-01T12:33:45;95625.47;;;13.05;29.42
13581;BME280;6861;46.170;7.222;2023-03-01T12:36:41;95621.84;;;13.01;29.83
13581;BME280;6861;46.170;7.222;2023-03-01T12:39:27;95608.44;;;13.03;30.37
13581;BME280;6861;46.170;7.222;2023-03-01T12:42:04;95606.28;;;13.05;29.86
13581;BME280;6861;46.170;7.222;2023-03-01T12:44:44;95607.75;;;12.97;29.83
13581;BME280;6861;46.170;7.222;2023-03-01T12:47:23;95606.66;;;12.85;30.28
13581;BME280;6861;46.170;7.222;2023-03-01T12:49:55;95603.91;;;12.76;30.54
13581;BME280;6861;46.170;7.222;2023-03-01T12:52:33;95608.59;;;12.79;31.15
13581;BME280;6861;46.170;7.222;2023-03-01T12:55:15;95599.84;;;12.84;31.71
13581;BME280;6861;46.170;7.222;2023-03-01T12:57:50;95592.56;;;12.94;31.53
13581;BME280;6861;46.170;7.222;2023-03-01T13:00:26;95597.84;;;12.94;31.23
13581;BME280;6861;46.170;7.222;2023-03-01T13:03:00;95589.38;;;12.97;30.93
13581;BME280;6861;46.170;7.222;2023-03-01T13:05:39;95587.25;;;12.99;30.84
13581;BME280;6861;46.170;7.222;2023-03-01T13:08:15;95594.63;;;12.97;31.76
13581;BME280;6861;46.170;7.222;2023-03-01T13:10:50;95589.38;;;12.97;31.45
13581;BME280;6861;46.170;7.222;2023-03-01T13:13:21;95577.88;;;12.93;31.23
13581;BME280;6861;46.170;7.222;2023-03-01T13:15:50;95578.56;;;12.85;31.43
13581;BME280;6861;46.170;7.222;2023-03-01T13:18:31;95577.66;;;12.76;31.62
13581;BME280;6861;46.170;7.222;2023-03-01T13:21:04;95570.72;;;12.66;31.71
13581;BME280;6861;46.170;7.222;2023-03-01T13:23:35;95570.22;;;12.64;31.71
13581;BME280;6861;46.170;7.222;2023-03-01T13:26:16;95572.22;;;12.54;32.58
13581;BME280;6861;46.170;7.222;2023-03-01T13:28:50;95562.72;;;12.39;32.35
13581;BME280;6861;46.170;7.222;2023-03-01T13:34:54;95557.72;;;12.24;32.62
13581;BME280;6861;46.170;7.222;2023-03-01T13:37:33;95559.91;;;12.17;33.59
13581;BME280;6861;46.170;7.222;2023-03-01T13:42:51;95545.41;;;12.05;32.92
13581;BME280;6861;46.170;7.222;2023-03-01T13:45:36;95550.50;;;11.97;33.58
13581;BME280;6861;46.170;7.222;2023-03-01T13:48:09;95558.44;;;11.92;33.68
13581;BME280;6861;46.170;7.222;2023-03-01T13:50:45;95553.25;;;11.87;33.60
13581;BME280;6861;46.170;7.222;2023-03-01T13:53:17;95546.81;;;11.79;34.28
13581;BME280;6861;46.170;7.222;2023-03-01T13:55:48;95544.50;;;11.72;34.48
13581;BME280;6861;46.170;7.222;2023-03-01T13:58:25;95547.19;;;11.67;33.86
13581;BME280;6861;46.170;7.222;2023-03-01T14:00:58;95543.06;;;11.61;33.96
13581;BME280;6861;46.170;7.222;2023-03-01T14:03:28;95546.91;;;11.45;34.75